ADDS METAR Data INFO
IDs: Format: Raw Decoded Include TAF

Data at: 1406 UTC 24 Feb 2018

KDET 241353Z 05004KT 10SM OVC100 03/M01 A3023 RMK AO2 SLP240 T00331011
KDET 241319Z 04004KT 10SM SCT025 OVC100 03/M01 A3024 RMK AO2 T00331011
KDET 241253Z 00000KT 10SM OVC024 03/M01 A3023 RMK AO2 SLP242 T00281011
KDET 241153Z 03003KT 10SM OVC023 03/M01 A3024 RMK AO2 SLP244 70005 T00281011 10044 20028 50001
KDET 241053Z 02006KT 10SM OVC019 03/M01 A3024 RMK AO2 SLP245 T00281011
KDET 240953Z 01004KT 10SM OVC019 03/M01 A3024 RMK AO2 SLP246 T00331011
KDET 240853Z VRB03KT 10SM OVC018 03/M01 A3024 RMK AO2 SLP243 T00331011 51003
KDET 240753Z 35006KT 10SM OVC018 04/M01 A3023 RMK AO2 SLP241 T00391006
KDET 240653Z AUTO 34007KT 10SM OVC017 04/00 A3025 RMK AO2 SLP249 T00390000
KDET 240553Z 29007KT 10SM OVC016 04/01 A3023 RMK AO2 SLP240 T00440011 10083 20044 53010
KDET 240453Z 31007KT 10SM OVC016 05/02 A3021 RMK AO2 SLP236 T00500017 400940006
KDET 240353Z 31010G15KT 10SM OVC016 06/02 A3020 RMK AO2 SLP232 T00560022
KDET 240253Z 31006G15KT 10SM OVC018 07/03 A3020 RMK AO2 SLP230 T00670028 51013
KDET 240153Z 27014G19KT 10SM OVC022 07/04 A3018 RMK AO2 SLP225 T00720039
KDET 240114Z 26010KT 10SM OVC015 08/05 A3018 RMK AO2 T00780050
KDET 240053Z 27008KT 10SM OVC014 08/05 A3018 RMK AO2 SLP224 T00780050
KDET 232353Z 27008G19KT 10SM OVC012 08/06 A3016 RMK AO2 SLP216 T00830056 10094 20072 53023
KDET 232253Z 26007KT 10SM OVC013 08/06 A3013 RMK AO2 SLP207 T00830061
KDET 232153Z 27014G21KT 10SM OVC015 09/06 A3012 RMK AO2 SLP202 T00890061
KDET 232053Z 25008KT 10SM OVC011 09/07 A3009 RMK AO2 SLP193 T00890072 53005
KDET 231953Z 26010KT 10SM OVC009 09/07 A3007 RMK AO2 SLP188 T00890067
KDET 231853Z 25011KT 10SM OVC007 08/07 A3007 RMK AO2 SLP187 T00830067
KDET 231753Z 23011G16KT 8SM OVC008 07/06 A3007 RMK AO2 SLP188 60005 T00720056 10072 20017 58012
KDET 231708Z 20007KT 4SM BR OVC005 06/05 A3009 RMK AO2 T00610050
KDET 231653Z 21006KT 3SM BR OVC004 06/05 A3009 RMK AO2 RAE43 SLP196 P0002 T00610050
KDET 231644Z 22005KT 4SM BR OVC004 06/04 A3010 RMK AO2 RAE43 P0002 T00560044
KDET 231637Z 21006KT 2 1/2SM -RA BR OVC004 06/04 A3010 RMK AO2 P0002 T00560044
KDET 231613Z 20006KT 2SM -RA BR OVC005 05/04 A3010 RMK AO2 VIS 1 1/4V4 P0001 T00500039
KDET 231604Z 18003KT 1 3/4SM -RA BR OVC004 05/04 A3010 RMK AO2 P0000 T00500044
KDET 231553Z 20004KT 3SM -RA BR OVC004 04/04 A3011 RMK AO2 SLP202 P0001 T00440039
KDET 231548Z 20004KT 2SM -RA BR OVC004 04/04 A3011 RMK AO2 P0001
KDET 231511Z 18004KT 3SM -RA BR OVC003 03/03 A3012 RMK AO2 P0000 T00330028
KDET 231453Z 16005KT 2SM -RA BR OVC003 03/02 A3011 RMK AO2 RAB37 SLP204 P0002 60002 T00330022 56044
KDET 231416Z 15007KT 3SM BR OVC003 03/03 A3014 RMK AO2 T00280028
KDET 231401Z 16006KT 2SM BR OVC002 03/02 A3015 RMK AO2 T00280022
KDET 231353Z 16006KT 1 3/4SM BR OVC002 03/02 A3016 RMK AO2 UPE1256 SLP220 P0000 T00280022
KDET 231332Z 14007KT 1 1/2SM BR OVC002 02/02 A3016 RMK AO2 UPE1256 P0000 T00220017
KDET 231306Z 14006KT 2 1/2SM BR OVC003 02/02 A3019 RMK AO2 UPE1256 P0000 T00170017
KDET 231253Z 14006KT 3SM UP BR OVC003 02/01 A3019 RMK AO2 RAB1159E09B35E53UPB53 SLP231 P0000 T00170011
KDET 231153Z 14005KT 5SM BR OVC003 02/01 A3025 RMK AO2 SLP249 T00170011 10017 20011 56033
KDET 231053Z 12009KT 5SM BR OVC003 01/01 A3026 RMK AO2 SLP252 T00110006
KDET 231008Z 12007KT 3SM BR OVC003 01/01 A3030 RMK AO2 T00110006
KDET 230953Z 11009KT 2 1/2SM BR OVC003 01/01 A3030 RMK AO2 PRESFR SLP266 T00110006
KDET 230928Z 14007KT 2 1/2SM BR OVC004 01/00 A3033 RMK AO2 T00110000
KDET 230918Z 11009KT 3SM BR OVC004 01/00 A3033 RMK AO2 CIG 003V007 T00110000
KDET 230853Z 13010KT 10SM OVC008 01/M01 A3035 RMK AO2 SLP282 T00111006 58029
KDET 230753Z 10006KT 10SM OVC009 01/M01 A3039 RMK AO2 SLP298 T00111011
KDET 230730Z 09008KT 10SM OVC009 01/M01 A3039 RMK AO2 T00111011
KDET 230702Z 08008KT 10SM OVC010 01/M01 A3040 RMK AO2 T00111011
KDET 230653Z 09011KT 10SM OVC009 01/M01 A3040 RMK AO2 PRESFR SLP302 T00111011
KDET 230643Z 08009KT 10SM OVC009 01/M01 A3042 RMK AO2 T00111011
KDET 230553Z 10010KT 8SM OVC012 01/M01 A3043 RMK AO2 SLP313 T00111011 10017 20000 58022
KDET 230453Z 06006KT 10SM BKN013 OVC018 01/M02 A3047 RMK AO2 SLP324 T00061022 400331017
KDET 230353Z 06007KT 10SM OVC020 01/M02 A3048 RMK AO2 SLP331 T00061022
KDET 230253Z 05010KT 10SM OVC022 00/M03 A3050 RMK AO2 SLP336 T00001028 58015